Terminal Aerodrome Forecast
Issued by NWS

Home | Current Version | Previous Version | Graphics & Text | Print | Product List | Glossary On
Versions: 1 2 3 4 5 6 7 8 9 10 11 12 13 14 15 16 17 18 19 20 21 22 23 24 25 26
000
FTUS42 KMHX 020544 CCA
TAFOAJ
TAF COR
KOAJ 020544Z 0206/0306 00000KT 1SM BR BKN005
     FM020800 00000KT 3SM BR SCT005
      TEMPO 0209/0212 2SM BR BKN005
     FM021300 24005KT P6SM SCT050
     FM022200 18005KT P6SM BKN050
      AMD LTD TO CLD VIS AND WIND=

USA.gov is the U.S. government's official web portal to all federal, state and local government web resources and services.